createdAt,value
2023-11-14T00:00:27.418Z,11.37
2023-11-14T00:03:00.399Z,11.36
2023-11-14T00:05:37.598Z,11.41
2023-11-14T00:08:08.142Z,11.45
2023-11-14T00:10:37.147Z,11.41
2023-11-14T00:13:10.027Z,11.43
2023-11-14T00:15:39.734Z,11.33
2023-11-14T00:18:11.721Z,11.29
2023-11-14T00:20:50.505Z,11.35
2023-11-14T00:23:20.434Z,11.36
2023-11-14T00:25:50.833Z,11.20
2023-11-14T00:28:22.721Z,11.25
2023-11-14T00:30:56.730Z,11.14
2023-11-14T00:33:31.795Z,11.03
2023-11-14T00:36:03.132Z,10.91
2023-11-14T00:38:34.493Z,10.86
2023-11-14T00:41:05.207Z,10.82
2023-11-14T00:43:38.701Z,11.09
2023-11-14T00:46:13.450Z,10.96
2023-11-14T00:48:44.417Z,10.94
2023-11-14T00:51:14.937Z,11.10
2023-11-14T00:53:46.174Z,10.93
2023-11-14T00:56:24.877Z,10.88
2023-11-14T00:58:55.886Z,10.83
2023-11-14T01:01:34.763Z,10.93
2023-11-14T01:04:04.310Z,11.01
2023-11-14T01:06:33.772Z,10.95
2023-11-14T01:09:06.839Z,10.88
2023-11-14T01:11:36.096Z,10.78
2023-11-14T01:14:14.949Z,10.71
2023-11-14T01:16:48.242Z,10.69
2023-11-14T01:19:17.720Z,10.59
2023-11-14T01:21:48.652Z,10.48
2023-11-14T01:24:19.332Z,10.41
2023-11-14T01:26:52.007Z,10.26
2023-11-14T01:29:22.975Z,10.18
2023-11-14T01:31:58.109Z,10.11
2023-11-14T01:34:32.208Z,10.06
2023-11-14T01:37:04.443Z,9.99
2023-11-14T01:39:35.091Z,9.96
2023-11-14T01:42:05.735Z,9.87
2023-11-14T01:44:37.957Z,9.90
2023-11-14T01:47:21.159Z,9.91
2023-11-14T01:49:51.443Z,9.99
2023-11-14T01:52:21.688Z,9.98
2023-11-14T01:54:54.252Z,10.03
2023-11-14T01:57:24.483Z,9.99
2023-11-14T01:59:57.541Z,9.88
2023-11-14T02:02:38.148Z,9.94
2023-11-14T02:05:10.045Z,10.06
2023-11-14T02:07:43.125Z,10.12
2023-11-14T02:10:13.630Z,10.10
2023-11-14T02:12:43.113Z,10.23
2023-11-14T02:15:13.858Z,10.17
2023-11-14T02:17:48.468Z,10.21
2023-11-14T02:20:18.804Z,10.14
2023-11-14T02:22:49.556Z,10.08
2023-11-14T02:25:33.633Z,10.03
2023-11-14T02:28:08.852Z,9.93
2023-11-14T02:30:42.901Z,9.90
2023-11-14T02:33:15.170Z,9.81
2023-11-14T02:35:45.762Z,9.80
2023-11-14T02:38:20.366Z,9.81
2023-11-14T02:40:54.366Z,9.79
2023-11-14T02:43:23.274Z,9.68
2023-11-14T02:45:54.472Z,9.66
2023-11-14T02:48:25.571Z,9.61
2023-11-14T02:50:55.735Z,9.53
2023-11-14T02:53:27.896Z,9.48
2023-11-14T02:55:59.616Z,9.29
2023-11-14T02:58:29.982Z,9.25
2023-11-14T03:01:02.493Z,9.10
2023-11-14T03:03:32.271Z,9.05
2023-11-14T03:06:04.485Z,9.00
2023-11-14T03:08:35.489Z,9.00
2023-11-14T03:11:12.631Z,9.09
2023-11-14T03:13:44.841Z,9.14
2023-11-14T03:16:16.845Z,9.18
2023-11-14T03:18:46.571Z,9.22
2023-11-14T03:21:21.600Z,9.17
2023-11-14T03:23:52.283Z,9.13
2023-11-14T03:26:34.840Z,9.04
2023-11-14T03:29:05.299Z,8.89
2023-11-14T03:35:23.359Z,9.37
2023-11-14T03:37:52.616Z,9.22
2023-11-14T03:40:23.791Z,9.09
2023-11-14T03:43:15.288Z,9.05
2023-11-14T03:45:49.720Z,9.00
2023-11-14T03:48:22.599Z,9.04
2023-11-14T03:50:55.921Z,8.98
2023-11-14T03:53:26.030Z,9.14
2023-11-14T03:55:57.127Z,9.18
2023-11-14T03:58:28.286Z,9.14
2023-11-14T04:00:58.666Z,9.14
2023-11-14T04:03:28.071Z,9.17
2023-11-14T04:06:01.577Z,9.11
2023-11-14T04:08:32.307Z,9.12
2023-11-14T04:11:00.509Z,9.21
2023-11-14T04:13:36.892Z,9.15
2023-11-14T04:16:09.571Z,8.95
2023-11-14T04:18:43.438Z,8.90
2023-11-14T04:21:15.005Z,8.78
2023-11-14T04:23:43.799Z,8.70
2023-11-14T04:26:15.993Z,8.70
2023-11-14T04:28:50.150Z,8.85
2023-11-14T04:31:21.886Z,8.89
2023-11-14T04:33:52.796Z,8.93
2023-11-14T04:36:22.949Z,8.94
2023-11-14T04:38:52.019Z,9.00
2023-11-14T04:41:21.838Z,9.11
2023-11-14T04:43:59.149Z,9.07
2023-11-14T04:46:31.084Z,9.16
2023-11-14T04:49:02.943Z,9.08
2023-11-14T04:51:45.162Z,9.21
2023-11-14T04:54:15.702Z,9.29
2023-11-14T04:56:46.482Z,9.30
2023-11-14T04:59:23.758Z,9.25
2023-11-14T05:01:54.224Z,9.17
2023-11-14T05:04:23.481Z,9.25
2023-11-14T05:06:54.721Z,9.18
2023-11-14T05:09:31.212Z,9.09
2023-11-14T05:12:03.777Z,9.29
2023-11-14T05:14:35.381Z,9.27
2023-11-14T05:17:05.997Z,9.34
2023-11-14T05:22:21.686Z,9.29
2023-11-14T05:24:54.714Z,9.24
2023-11-14T05:27:26.934Z,9.26
2023-11-14T05:30:00.185Z,9.25
2023-11-14T05:32:31.450Z,9.18
2023-11-14T05:35:01.212Z,9.18
2023-11-14T05:37:30.154Z,9.22
2023-11-14T05:40:03.448Z,9.33
2023-11-14T05:42:36.508Z,9.47
2023-11-14T05:45:10.760Z,9.63
2023-11-14T05:47:43.700Z,9.66
2023-11-14T05:50:18.249Z,9.68
2023-11-14T05:52:47.494Z,9.85
2023-11-14T05:55:18.485Z,9.79
2023-11-14T05:57:49.353Z,9.85
2023-11-14T06:00:32.039Z,9.77
2023-11-14T06:03:06.447Z,9.92
2023-11-14T06:05:39.087Z,9.93
2023-11-14T06:08:08.410Z,9.89
2023-11-14T06:10:38.392Z,9.96
2023-11-14T06:13:07.700Z,10.02
2023-11-14T06:15:40.527Z,9.96
2023-11-14T06:18:09.846Z,10.02
2023-11-14T06:20:41.374Z,10.10
2023-11-14T06:23:11.126Z,9.93
2023-11-14T06:25:43.631Z,9.97
2023-11-14T06:28:12.950Z,9.84
2023-11-14T06:30:43.873Z,9.98
2023-11-14T06:33:13.777Z,9.97
2023-11-14T06:35:44.249Z,10.01
2023-11-14T06:38:15.778Z,10.10
2023-11-14T06:40:49.589Z,10.07
2023-11-14T06:43:19.543Z,10.05
2023-11-14T06:45:51.247Z,10.15
2023-11-14T06:48:24.164Z,10.01
2023-11-14T06:51:02.302Z,10.01
2023-11-14T06:53:33.742Z,10.08
2023-11-14T06:56:04.255Z,10.04
2023-11-14T06:58:35.332Z,9.98
2023-11-14T07:01:08.468Z,10.08
2023-11-14T07:03:50.923Z,10.11
2023-11-14T07:06:24.150Z,10.06
2023-11-14T07:09:02.348Z,10.13
2023-11-14T07:11:31.212Z,10.30
2023-11-14T07:14:01.011Z,10.37
2023-11-14T07:16:34.234Z,10.30
2023-11-14T07:19:14.868Z,10.45
2023-11-14T07:21:46.606Z,10.52
2023-11-14T07:24:19.262Z,10.50
2023-11-14T07:26:48.481Z,10.60
2023-11-14T07:29:21.184Z,10.62
2023-11-14T07:31:53.192Z,10.59
2023-11-14T07:34:22.278Z,10.88
2023-11-14T07:36:51.293Z,10.78
2023-11-14T07:39:26.609Z,10.80
2023-11-14T07:41:58.532Z,10.83
2023-11-14T07:44:28.171Z,10.73
2023-11-14T07:47:11.775Z,10.83
2023-11-14T07:49:51.799Z,10.86
2023-11-14T07:52:26.260Z,10.77
2023-11-14T07:55:04.299Z,10.78
2023-11-14T07:57:38.178Z,10.91
2023-11-14T08:00:14.923Z,11.11
2023-11-14T08:03:01.820Z,11.27
2023-11-14T08:05:33.851Z,11.36
2023-11-14T08:08:03.924Z,11.78
2023-11-14T08:10:33.813Z,11.64
2023-11-14T08:13:05.397Z,11.69
2023-11-14T08:15:37.025Z,11.69
2023-11-14T08:18:14.269Z,11.56
2023-11-14T08:20:46.798Z,11.55
2023-11-14T08:23:18.989Z,11.46
2023-11-14T08:25:55.878Z,11.43
2023-11-14T08:28:31.044Z,11.51
2023-11-14T08:31:05.326Z,11.45
2023-11-14T08:33:42.076Z,11.57
2023-11-14T08:36:24.461Z,11.64
2023-11-14T08:38:55.141Z,11.72
2023-11-14T08:41:24.560Z,11.77
2023-11-14T08:43:58.459Z,11.85
2023-11-14T08:46:29.119Z,11.98
2023-11-14T08:49:08.180Z,11.83
2023-11-14T08:51:39.693Z,11.78
2023-11-14T08:54:12.714Z,11.72
2023-11-14T08:56:52.857Z,11.55
2023-11-14T08:59:25.047Z,11.59
2023-11-14T09:02:01.260Z,11.80
2023-11-14T09:04:32.244Z,11.80
2023-11-14T09:07:03.669Z,11.81
2023-11-14T09:09:33.698Z,11.75
2023-11-14T09:12:03.347Z,11.76
2023-11-14T09:14:33.445Z,11.64
2023-11-14T09:17:02.645Z,11.78
2023-11-14T09:19:34.687Z,11.80
2023-11-14T09:22:06.556Z,11.96
2023-11-14T09:24:40.440Z,11.99
2023-11-14T09:27:16.240Z,12.07
2023-11-14T09:29:55.355Z,11.93
2023-11-14T09:32:25.055Z,12.06
2023-11-14T09:34:57.347Z,12.07
2023-11-14T09:37:31.438Z,12.19
2023-11-14T09:40:02.126Z,12.13
2023-11-14T09:42:31.319Z,12.04
2023-11-14T09:45:14.822Z,11.89
2023-11-14T09:47:45.354Z,12.11
2023-11-14T09:50:17.710Z,12.34
2023-11-14T09:52:48.734Z,12.44
2023-11-14T09:55:18.179Z,12.37
2023-11-14T09:57:50.463Z,12.58
2023-11-14T10:03:10.998Z,12.35
2023-11-14T10:05:45.658Z,12.53
2023-11-14T10:08:19.035Z,12.51
2023-11-14T10:11:10.193Z,13.02
2023-11-14T10:13:41.171Z,12.84
2023-11-14T10:16:17.924Z,12.83
2023-11-14T10:18:59.501Z,12.74
2023-11-14T10:21:39.322Z,12.88
2023-11-14T10:24:17.773Z,12.52
2023-11-14T10:26:53.804Z,12.70
2023-11-14T10:29:25.727Z,12.56
2023-11-14T10:32:04.966Z,12.56
2023-11-14T10:34:41.215Z,12.50
2023-11-14T10:37:13.022Z,12.44
2023-11-14T10:39:55.282Z,12.35
2023-11-14T10:42:59.406Z,12.27
2023-11-14T10:45:32.330Z,12.54
2023-11-14T10:48:02.964Z,12.25
2023-11-14T10:50:35.869Z,12.43
2023-11-14T10:53:09.003Z,12.48
2023-11-14T10:55:48.342Z,12.49
2023-11-14T10:58:20.607Z,12.15
2023-11-14T11:00:57.115Z,12.26
2023-11-14T11:03:37.908Z,12.17
2023-11-14T11:06:18.618Z,12.21
2023-11-14T11:08:50.896Z,12.22
2023-11-14T11:11:24.512Z,12.08
2023-11-14T11:13:56.635Z,11.96
2023-11-14T11:17:01.572Z,12.18
2023-11-14T11:19:34.243Z,12.21
2023-11-14T11:22:09.137Z,12.11
2023-11-14T11:25:18.913Z,12.19
2023-11-14T11:27:53.641Z,12.15
2023-11-14T11:30:25.096Z,12.10
2023-11-14T11:32:59.968Z,12.27
2023-11-14T11:35:42.617Z,12.22
2023-11-14T11:38:16.666Z,12.31
2023-11-14T11:41:16.113Z,12.38
2023-11-14T11:43:50.139Z,12.09
2023-11-14T11:46:40.252Z,12.23
2023-11-14T11:49:32.423Z,12.30
2023-11-14T11:52:18.514Z,12.32
2023-11-14T11:54:54.648Z,12.52
2023-11-14T11:57:26.264Z,12.38
2023-11-14T12:00:26.121Z,12.48
2023-11-14T12:02:56.943Z,12.51
2023-11-14T12:05:29.895Z,12.58
2023-11-14T12:08:00.703Z,12.69
2023-11-14T12:10:38.130Z,12.86
2023-11-14T12:13:19.828Z,13.33
2023-11-14T12:15:52.231Z,13.58
2023-11-14T12:18:28.084Z,13.55
2023-11-14T12:20:57.534Z,13.49
2023-11-14T12:23:28.488Z,13.94
2023-11-14T12:26:00.621Z,13.72
2023-11-14T12:28:40.172Z,13.21
2023-11-14T12:31:12.809Z,13.15
2023-11-14T12:33:58.245Z,13.34
2023-11-14T12:36:31.317Z,13.17
2023-11-14T12:39:17.494Z,13.04
2023-11-14T12:41:48.460Z,12.72
2023-11-14T12:44:19.642Z,12.82
2023-11-14T12:46:55.907Z,13.09
2023-11-14T12:49:29.295Z,12.88
2023-11-14T12:52:10.082Z,12.78
2023-11-14T12:54:48.952Z,12.65
2023-11-14T12:57:20.454Z,12.78
2023-11-14T12:59:54.002Z,12.85
2023-11-14T13:02:27.079Z,12.88
2023-11-14T13:04:57.781Z,12.81
2023-11-14T13:07:26.963Z,12.87
2023-11-14T13:09:55.849Z,12.80
2023-11-14T13:12:29.487Z,12.75
2023-11-14T13:15:00.768Z,12.98
2023-11-14T13:17:35.190Z,13.03
2023-11-14T13:20:05.392Z,12.88
2023-11-14T13:22:36.617Z,12.91
2023-11-14T13:25:09.070Z,12.79
2023-11-14T13:27:40.281Z,12.90
2023-11-14T13:30:14.445Z,12.89
2023-11-14T13:32:44.559Z,12.81
2023-11-14T13:35:15.244Z,12.78
2023-11-14T13:37:48.028Z,12.77
2023-11-14T13:40:22.867Z,12.87
2023-11-14T13:43:02.854Z,12.66
2023-11-14T13:45:36.819Z,12.78
2023-11-14T13:48:08.952Z,12.75
2023-11-14T13:50:41.960Z,12.78
2023-11-14T13:53:22.453Z,12.77
2023-11-14T13:56:21.098Z,12.82
2023-11-14T13:58:58.751Z,12.83
2023-11-14T14:01:36.263Z,12.81
2023-11-14T14:04:07.528Z,12.86
2023-11-14T14:06:40.436Z,12.82
2023-11-14T14:09:14.570Z,12.79
2023-11-14T14:11:48.478Z,12.87
2023-11-14T14:14:20.305Z,12.88
2023-11-14T14:16:52.309Z,12.90
2023-11-14T14:19:27.063Z,12.67
2023-11-14T14:21:55.898Z,12.85
2023-11-14T14:24:28.017Z,12.94
2023-11-14T14:27:05.281Z,12.87
2023-11-14T14:29:36.541Z,13.02
2023-11-14T14:32:14.924Z,12.99
2023-11-14T14:34:47.104Z,13.00
2023-11-14T14:37:21.793Z,12.98
2023-11-14T14:39:53.463Z,13.05
2023-11-14T14:42:30.636Z,13.03
2023-11-14T14:45:00.118Z,13.02
2023-11-14T14:47:35.195Z,12.85
2023-11-14T14:50:06.707Z,12.77
2023-11-14T14:52:49.975Z,12.82
2023-11-14T14:55:19.891Z,12.74
2023-11-14T14:58:08.223Z,12.79
2023-11-14T15:00:38.777Z,12.75
2023-11-14T15:03:09.302Z,12.58
2023-11-14T15:05:38.905Z,12.78
2023-11-14T15:08:13.416Z,12.87
2023-11-14T15:10:43.993Z,12.81
2023-11-14T15:13:12.882Z,12.90
2023-11-14T15:15:43.102Z,12.89
2023-11-14T15:18:13.952Z,12.83
2023-11-14T15:20:48.374Z,12.90
2023-11-14T15:23:19.753Z,12.84
2023-11-14T15:25:53.631Z,12.79
2023-11-14T15:28:25.308Z,12.77
2023-11-14T15:30:54.763Z,12.67
2023-11-14T15:33:29.197Z,12.56
2023-11-14T15:36:02.549Z,12.47
2023-11-14T15:38:36.406Z,12.37
2023-11-14T15:41:11.452Z,12.33
2023-11-14T15:43:44.073Z,12.27
2023-11-14T15:46:15.438Z,12.22
2023-11-14T15:48:54.532Z,12.22
2023-11-14T15:51:28.499Z,12.16
2023-11-14T15:53:59.444Z,12.17
2023-11-14T15:56:31.619Z,12.16
2023-11-14T15:59:02.553Z,12.16
2023-11-14T16:01:33.453Z,12.14
2023-11-14T16:04:08.140Z,12.15
2023-11-14T16:06:37.335Z,12.06
2023-11-14T16:09:08.250Z,12.16
2023-11-14T16:11:37.723Z,12.19
2023-11-14T16:14:08.150Z,12.18
2023-11-14T16:16:39.861Z,12.19
2023-11-14T16:19:13.068Z,12.18
2023-11-14T16:21:53.519Z,12.24
2023-11-14T16:24:23.024Z,12.23
2023-11-14T16:26:54.135Z,12.26
2023-11-14T16:29:25.220Z,12.22
2023-11-14T16:31:54.801Z,12.23
2023-11-14T16:34:29.886Z,12.26
2023-11-14T16:37:01.763Z,12.22
2023-11-14T16:39:34.471Z,12.19
2023-11-14T16:42:07.072Z,12.24
2023-11-14T16:44:37.378Z,12.28
2023-11-14T16:47:08.137Z,12.13
2023-11-14T16:49:40.370Z,12.12
2023-11-14T16:52:10.551Z,12.16
2023-11-14T16:54:46.040Z,12.17
2023-11-14T16:57:15.842Z,12.14
2023-11-14T16:59:47.217Z,12.16
2023-11-14T17:02:19.056Z,12.11
2023-11-14T17:04:53.548Z,12.04
2023-11-14T17:07:26.408Z,12.01
2023-11-14T17:09:58.207Z,11.96
2023-11-14T17:12:27.846Z,11.91
2023-11-14T17:14:58.950Z,11.95
2023-11-14T17:17:28.837Z,11.80
2023-11-14T17:20:00.646Z,11.80
2023-11-14T17:22:29.987Z,11.77
2023-11-14T17:24:59.030Z,11.69
2023-11-14T17:27:30.229Z,11.67
2023-11-14T17:29:59.931Z,11.61
2023-11-14T17:32:34.058Z,11.56
2023-11-14T17:35:13.878Z,11.51
2023-11-14T17:37:45.018Z,11.60
2023-11-14T17:40:18.874Z,11.49
2023-11-14T17:42:49.806Z,11.43
2023-11-14T17:45:24.372Z,11.18
2023-11-14T17:47:55.071Z,10.93
2023-11-14T17:50:27.540Z,10.84
2023-11-14T17:52:59.861Z,10.85
2023-11-14T17:55:35.706Z,10.68
2023-11-14T17:58:05.597Z,10.64
2023-11-14T18:00:40.921Z,10.52
2023-11-14T18:03:11.455Z,10.49
2023-11-14T18:05:42.616Z,10.43
2023-11-14T18:08:16.243Z,10.43
2023-11-14T18:10:46.072Z,10.39
2023-11-14T18:13:18.463Z,10.36
2023-11-14T18:15:47.600Z,10.31
2023-11-14T18:18:33.111Z,10.26
2023-11-14T18:21:05.427Z,10.24
2023-11-14T18:23:35.976Z,10.21
2023-11-14T18:26:10.259Z,10.18
2023-11-14T18:28:40.183Z,10.17
2023-11-14T18:31:15.646Z,10.18
2023-11-14T18:33:49.975Z,10.17
2023-11-14T18:36:23.452Z,10.18
2023-11-14T18:38:58.076Z,10.23
2023-11-14T18:41:30.657Z,10.12
2023-11-14T18:44:00.864Z,10.17
2023-11-14T18:46:35.231Z,10.21
2023-11-14T18:49:05.649Z,10.15
2023-11-14T18:51:38.046Z,10.09
2023-11-14T18:54:07.718Z,10.18
2023-11-14T18:56:40.761Z,10.24
2023-11-14T18:59:21.152Z,10.07
2023-11-14T19:01:53.445Z,9.98
2023-11-14T19:04:23.512Z,9.96
2023-11-14T19:06:56.696Z,9.91
2023-11-14T19:09:28.880Z,10.08
2023-11-14T19:12:00.216Z,9.98
2023-11-14T19:14:29.063Z,10.10
2023-11-14T19:17:11.115Z,9.88
2023-11-14T19:19:42.611Z,9.90
2023-11-14T19:22:51.617Z,9.97
2023-11-14T19:25:10.106Z,9.88
2023-11-14T19:27:40.031Z,10.10
2023-11-14T19:30:13.556Z,10.14
2023-11-14T19:32:45.755Z,10.09
2023-11-14T19:35:15.875Z,10.11
2023-11-14T19:37:47.216Z,10.04
2023-11-14T19:40:16.747Z,9.98
2023-11-14T19:42:52.509Z,9.99
2023-11-14T19:45:29.154Z,10.00
2023-11-14T19:47:59.286Z,9.96
2023-11-14T19:50:29.650Z,9.95
2023-11-14T19:53:03.264Z,9.92
2023-11-14T19:55:36.568Z,9.93
2023-11-14T19:58:20.280Z,10.04
2023-11-14T20:00:54.920Z,9.91
2023-11-14T20:03:31.285Z,9.99
2023-11-14T20:08:50.867Z,10.02
2023-11-14T20:11:21.945Z,9.95
2023-11-14T20:13:54.370Z,9.91
2023-11-14T20:16:24.730Z,9.84
2023-11-14T20:18:55.173Z,9.78
2023-11-14T20:21:29.705Z,9.74
2023-11-14T20:24:03.164Z,9.93
2023-11-14T20:26:34.515Z,9.92
2023-11-14T20:29:13.962Z,9.94
2023-11-14T20:31:45.225Z,9.98
2023-11-14T20:34:16.133Z,9.95
2023-11-14T20:36:49.300Z,10.13
2023-11-14T20:39:26.516Z,10.16
2023-11-14T20:42:02.870Z,10.08
2023-11-14T20:44:34.326Z,10.19
2023-11-14T20:47:04.895Z,10.08
2023-11-14T20:49:37.948Z,9.91
2023-11-14T20:52:09.773Z,9.94
2023-11-14T20:54:43.959Z,9.89
2023-11-14T20:57:17.598Z,9.96
2023-11-14T20:59:52.465Z,9.96
2023-11-14T21:02:24.621Z,9.94
2023-11-14T21:04:54.965Z,10.03
2023-11-14T21:07:25.206Z,10.00
2023-11-14T21:10:00.676Z,10.08
2023-11-14T21:12:29.885Z,10.05
2023-11-14T21:14:59.433Z,9.99
2023-11-14T21:17:33.589Z,10.10
2023-11-14T21:20:09.267Z,9.95
2023-11-14T21:22:38.388Z,9.90
2023-11-14T21:25:10.469Z,9.99
2023-11-14T21:27:42.103Z,9.85
2023-11-14T21:30:13.785Z,10.01
2023-11-14T21:32:45.398Z,9.93
2023-11-14T21:35:15.951Z,10.11
2023-11-14T21:37:45.738Z,10.22
2023-11-14T21:40:21.396Z,10.17
2023-11-14T21:42:53.114Z,10.35
2023-11-14T21:45:24.963Z,10.28
2023-11-14T21:47:54.656Z,10.25
2023-11-14T21:50:41.493Z,10.29
2023-11-14T21:53:12.067Z,10.33
2023-11-14T21:55:45.108Z,10.47
2023-11-14T21:58:14.952Z,10.41
2023-11-14T22:00:49.877Z,10.48
2023-11-14T22:03:20.633Z,10.74
2023-11-14T22:05:51.284Z,10.63
2023-11-14T22:12:12.709Z,10.70
2023-11-14T22:14:45.570Z,10.90
2023-11-14T22:17:15.869Z,10.85
2023-11-14T22:19:45.303Z,10.82
2023-11-14T22:22:20.206Z,10.75
2023-11-14T22:24:49.166Z,10.97
2023-11-14T22:27:19.605Z,10.77
2023-11-14T22:29:51.296Z,10.89
2023-11-14T22:32:20.183Z,11.07
2023-11-14T22:34:49.608Z,11.06
2023-11-14T22:37:18.935Z,11.11
2023-11-14T22:39:53.933Z,11.06
2023-11-14T22:42:23.272Z,11.16
2023-11-14T22:44:55.402Z,11.05
2023-11-14T22:47:26.001Z,11.04
2023-11-14T22:49:58.814Z,11.06
2023-11-14T22:52:28.114Z,11.04
2023-11-14T22:55:04.482Z,11.17
2023-11-14T22:57:35.413Z,11.03
2023-11-14T23:00:29.817Z,11.04
2023-11-14T23:03:04.563Z,11.08
2023-11-14T23:05:39.483Z,11.13
2023-11-14T23:08:10.973Z,11.23
2023-11-14T23:10:40.474Z,11.15
2023-11-14T23:13:14.063Z,11.20
2023-11-14T23:15:45.850Z,11.20
2023-11-14T23:18:18.395Z,11.07
2023-11-14T23:20:50.376Z,11.19
2023-11-14T23:23:19.491Z,11.09
2023-11-14T23:25:57.254Z,11.14
2023-11-14T23:28:27.593Z,11.01
2023-11-14T23:31:00.516Z,10.87
2023-11-14T23:33:33.138Z,10.76
2023-11-14T23:36:03.896Z,10.74
2023-11-14T23:38:35.144Z,10.75
2023-11-14T23:41:05.092Z,10.69
2023-11-14T23:43:53.304Z,10.62
2023-11-14T23:46:27.261Z,10.74
2023-11-14T23:49:02.382Z,10.89
2023-11-14T23:51:35.083Z,10.82
2023-11-14T23:54:04.533Z,10.90
2023-11-14T23:56:37.083Z,10.84
2023-11-14T23:59:08.319Z,10.90
